Portada
METAR-TAF:

METAR-TAF

Aeroports :

Golden Triangle Regional Airport

West Point-Starkville, Mississipí, Estats Units d'Amèrica

latitud: 33-27N, longitud: 088-35W, altitud: 80 m

Observació

L'informe es va fer fa 49 minuts, a les 10:56 UTC
Vent 4 kt del Nord/Nord-Oest
Temperatura 18°C
Humitat 100%
Pressió 1019 hPa
Visibilitat: 16.1 km
Cel clar

METAR: KGTR 301056Z 33004KT 10SM CLR 18/18 A3009 RMK AO2 SLP195 T01780178

Hora: 06:45 (11:45 UTC)

Pronòstic

L'informe es va fer fa 25 minuts, a les 11:20 UTC
Pronòstic vàlid del 30 a les 12 UTC al 31 a les 12 UTC
Vent 4 kt del Nord/Nord-Oest
Visibilitat: 10 km
Cel clar

TAF: KGTR 301120Z 3012/3112 33004KT P6SM SKC

Observacions i pronòstics meteorològics de més de 4000 aeroports (METAR i TAF).

Les estacions disponibles són els punts grocs i vermells al mapa.

Posi el ratolí al punt desitjat per veure el nom de l'estació.

Feu clic per veure les observacions i els pronòstics meteorològics.

Per canviar el mapa: feu clic els botons verds amb una creu de color negre per apropar; al botó verd amb un guió per allunyar la imatge; o en les fletxes verdes per a mapes adjacents.


METAR-TAF: